Millers Ferry, Alabama
Current Conditions -  °F | °C
As of 1:55 PM on Monday 22 Dec 2014 (Local Time) from KSEM Reporting Station
Light Rain Light Rain  
Wind Chill: 54°   Ceiling: 500
Heat Index: 54°   Visibility: 3mi
Dew Point: 52°   Wind: 8mph
Humidity: 94%   Direction: 110°ESE
Pressure: 29.8"   Gusts: NA
Location:  32.0151°N, 87.2791°W
Report Text: KSEM 221955Z AUTO 11007KT 3SM -RA OVC005 12/11 A2980 RMK AO2
Loading
Personal Weather Stations






























Interactive Weather Map New forecast layout! Learn more

10-Day Weather Forecast

Advertisements
Track Severe Weather on mobile